sensor_id;sensor_type;location;lat;lon;timestamp;temperature;humidity
21121;DHT22;12519;43.318;21.898;2023-06-14T00:02:29;18.6;99.0
21121;DHT22;12519;43.318;21.898;2023-06-14T00:07:06;18.3;100.0
21121;DHT22;12519;43.318;21.898;2023-06-14T00:11:44;18.3;100.0
21121;DHT22;12519;43.318;21.898;2023-06-14T00:16:20;18.3;100.0
21121;DHT22;12519;43.318;21.898;2023-06-14T00:20:57;18.3;100.0
21121;DHT22;12519;43.318;21.898;2023-06-14T00:25:34;18.3;100.0
21121;DHT22;12519;43.318;21.898;2023-06-14T00:30:13;18.3;100.0
21121;DHT22;12519;43.318;21.898;2023-06-14T00:34:50;18.3;100.0
21121;DHT22;12519;43.318;21.898;2023-06-14T00:39:26;18.3;100.0
21121;DHT22;12519;43.318;21.898;2023-06-14T00:44:04;18.3;100.0
21121;DHT22;12519;43.318;21.898;2023-06-14T00:48:42;18.3;100.0
21121;DHT22;12519;43.318;21.898;2023-06-14T00:53:20;18.3;100.0
21121;DHT22;12519;43.318;21.898;2023-06-14T00:57:57;18.1;100.0
21121;DHT22;12519;43.318;21.898;2023-06-14T01:02:36;18.1;100.0
21121;DHT22;12519;43.318;21.898;2023-06-14T01:07:43;17.9;100.0
21121;DHT22;12519;43.318;21.898;2023-06-14T01:13:10;17.9;100.0
21121;DHT22;12519;43.318;21.898;2023-06-14T01:18:00;18.0;100.0
21121;DHT22;12519;43.318;21.898;2023-06-14T01:22:51;18.0;100.0
21121;DHT22;12519;43.318;21.898;2023-06-14T01:27:30;18.0;100.0
21121;DHT22;12519;43.318;21.898;2023-06-14T01:32:08;18.0;100.0
21121;DHT22;12519;43.318;21.898;2023-06-14T01:36:50;18.0;100.0
21121;DHT22;12519;43.318;21.898;2023-06-14T01:41:34;18.0;100.0
21121;DHT22;12519;43.318;21.898;2023-06-14T01:46:15;18.0;100.0
21121;DHT22;12519;43.318;21.898;2023-06-14T01:50:53;18.0;100.0
21121;DHT22;12519;43.318;21.898;2023-06-14T01:55:30;17.7;100.0
21121;DHT22;12519;43.318;21.898;2023-06-14T02:00:10;17.7;100.0
21121;DHT22;12519;43.318;21.898;2023-06-14T02:04:49;17.4;100.0
21121;DHT22;12519;43.318;21.898;2023-06-14T02:09:27;17.4;100.0
21121;DHT22;12519;43.318;21.898;2023-06-14T02:14:04;17.5;100.0
21121;DHT22;12519;43.318;21.898;2023-06-14T02:18:40;17.5;100.0
21121;DHT22;12519;43.318;21.898;2023-06-14T02:23:17;17.5;100.0
21121;DHT22;12519;43.318;21.898;2023-06-14T02:27:54;17.7;100.0
21121;DHT22;12519;43.318;21.898;2023-06-14T02:32:31;17.7;100.0
21121;DHT22;12519;43.318;21.898;2023-06-14T02:37:08;17.8;100.0
21121;DHT22;12519;43.318;21.898;2023-06-14T02:41:44;17.8;100.0
21121;DHT22;12519;43.318;21.898;2023-06-14T02:46:21;17.9;100.0
21121;DHT22;12519;43.318;21.898;2023-06-14T02:50:58;17.9;100.0
21121;DHT22;12519;43.318;21.898;2023-06-14T02:55:34;17.8;100.0
21121;DHT22;12519;43.318;21.898;2023-06-14T03:00:12;17.8;100.0
21121;DHT22;12519;43.318;21.898;2023-06-14T03:04:50;17.8;100.0
21121;DHT22;12519;43.318;21.898;2023-06-14T03:09:26;17.8;100.0
21121;DHT22;12519;43.318;21.898;2023-06-14T03:14:03;17.8;100.0
21121;DHT22;12519;43.318;21.898;2023-06-14T03:18:39;17.8;100.0
21121;DHT22;12519;43.318;21.898;2023-06-14T03:23:15;17.8;100.0
21121;DHT22;12519;43.318;21.898;2023-06-14T03:27:52;17.9;100.0
21121;DHT22;12519;43.318;21.898;2023-06-14T03:32:28;17.9;100.0
21121;DHT22;12519;43.318;21.898;2023-06-14T03:37:05;17.9;100.0
21121;DHT22;12519;43.318;21.898;2023-06-14T03:41:42;17.9;100.0
21121;DHT22;12519;43.318;21.898;2023-06-14T03:46:18;17.9;100.0
21121;DHT22;12519;43.318;21.898;2023-06-14T03:50:55;17.9;100.0
21121;DHT22;12519;43.318;21.898;2023-06-14T03:55:31;18.0;100.0
21121;DHT22;12519;43.318;21.898;2023-06-14T04:00:12;18.0;100.0
21121;DHT22;12519;43.318;21.898;2023-06-14T04:04:50;18.0;100.0
21121;DHT22;12519;43.318;21.898;2023-06-14T04:09:27;18.0;100.0
21121;DHT22;12519;43.318;21.898;2023-06-14T04:14:04;18.0;100.0
21121;DHT22;12519;43.318;21.898;2023-06-14T04:18:42;18.0;100.0
21121;DHT22;12519;43.318;21.898;2023-06-14T04:23:18;18.0;100.0
21121;DHT22;12519;43.318;21.898;2023-06-14T04:27:55;18.0;100.0
21121;DHT22;12519;43.318;21.898;2023-06-14T04:32:32;18.0;100.0
21121;DHT22;12519;43.318;21.898;2023-06-14T04:37:09;17.9;100.0
21121;DHT22;12519;43.318;21.898;2023-06-14T04:41:46;17.9;100.0
21121;DHT22;12519;43.318;21.898;2023-06-14T04:46:22;17.8;100.0
21121;DHT22;12519;43.318;21.898;2023-06-14T04:50:59;17.8;100.0
21121;DHT22;12519;43.318;21.898;2023-06-14T04:55:35;17.9;100.0
21121;DHT22;12519;43.318;21.898;2023-06-14T05:00:13;17.9;100.0
21121;DHT22;12519;43.318;21.898;2023-06-14T05:04:51;18.0;100.0
21121;DHT22;12519;43.318;21.898;2023-06-14T05:09:28;18.0;100.0
21121;DHT22;12519;43.318;21.898;2023-06-14T05:14:05;18.0;100.0
21121;DHT22;12519;43.318;21.898;2023-06-14T05:18:41;18.2;100.0
21121;DHT22;12519;43.318;21.898;2023-06-14T05:23:18;18.2;100.0
21121;DHT22;12519;43.318;21.898;2023-06-14T05:27:54;18.4;100.0
21121;DHT22;12519;43.318;21.898;2023-06-14T05:32:31;18.4;100.0
21121;DHT22;12519;43.318;21.898;2023-06-14T05:37:08;19.0;100.0
21121;DHT22;12519;43.318;21.898;2023-06-14T05:41:44;19.0;100.0
21121;DHT22;12519;43.318;21.898;2023-06-14T05:46:22;19.5;100.0
21121;DHT22;12519;43.318;21.898;2023-06-14T05:50:59;19.5;100.0
21121;DHT22;12519;43.318;21.898;2023-06-14T05:55:36;19.6;99.0
21121;DHT22;12519;43.318;21.898;2023-06-14T06:00:15;19.6;99.0
21121;DHT22;12519;43.318;21.898;2023-06-14T06:04:52;19.6;99.0
21121;DHT22;12519;43.318;21.898;2023-06-14T06:09:29;19.6;99.0
21121;DHT22;12519;43.318;21.898;2023-06-14T06:14:06;19.6;99.0
21121;DHT22;12519;43.318;21.898;2023-06-14T06:18:43;20.3;98.0
21121;DHT22;12519;43.318;21.898;2023-06-14T06:23:20;20.3;98.0
21121;DHT22;12519;43.318;21.898;2023-06-14T06:27:57;21.0;98.0
21121;DHT22;12519;43.318;21.898;2023-06-14T06:32:34;21.0;98.0
21121;DHT22;12519;43.318;21.898;2023-06-14T06:37:11;21.4;96.0
21121;DHT22;12519;43.318;21.898;2023-06-14T06:41:49;21.4;96.0
21121;DHT22;12519;43.318;21.898;2023-06-14T06:46:25;21.9;94.0
21121;DHT22;12519;43.318;21.898;2023-06-14T06:51:02;21.9;94.0
21121;DHT22;12519;43.318;21.898;2023-06-14T06:55:39;22.0;93.0
21121;DHT22;12519;43.318;21.898;2023-06-14T07:00:18;22.0;93.0
21121;DHT22;12519;43.318;21.898;2023-06-14T07:04:56;22.1;93.0
21121;DHT22;12519;43.318;21.898;2023-06-14T07:09:33;22.1;93.0
21121;DHT22;12519;43.318;21.898;2023-06-14T07:14:10;22.1;93.0
21121;DHT22;12519;43.318;21.898;2023-06-14T07:18:47;22.0;93.0
21121;DHT22;12519;43.318;21.898;2023-06-14T07:23:24;22.0;93.0
21121;DHT22;12519;43.318;21.898;2023-06-14T07:28:00;21.9;93.0
21121;DHT22;12519;43.318;21.898;2023-06-14T07:32:38;21.9;93.0
21121;DHT22;12519;43.318;21.898;2023-06-14T07:37:15;21.5;95.0
21121;DHT22;12519;43.318;21.898;2023-06-14T07:41:51;21.5;95.0
21121;DHT22;12519;43.318;21.898;2023-06-14T07:46:28;21.2;96.0
21121;DHT22;12519;43.318;21.898;2023-06-14T07:51:05;21.2;96.0
21121;DHT22;12519;43.318;21.898;2023-06-14T07:55:41;21.5;96.0
21121;DHT22;12519;43.318;21.898;2023-06-14T08:00:20;21.5;96.0
21121;DHT22;12519;43.318;21.898;2023-06-14T08:04:57;21.8;95.0
21121;DHT22;12519;43.318;21.898;2023-06-14T08:09:35;21.8;95.0
21121;DHT22;12519;43.318;21.898;2023-06-14T08:14:12;21.8;95.0
21121;DHT22;12519;43.318;21.898;2023-06-14T08:18:49;22.5;94.0
21121;DHT22;12519;43.318;21.898;2023-06-14T08:23:25;22.5;94.0
21121;DHT22;12519;43.318;21.898;2023-06-14T08:28:02;23.1;93.0
21121;DHT22;12519;43.318;21.898;2023-06-14T08:32:38;23.1;93.0
21121;DHT22;12519;43.318;21.898;2023-06-14T08:37:15;23.5;91.0
21121;DHT22;12519;43.318;21.898;2023-06-14T08:41:54;23.5;91.0
21121;DHT22;12519;43.318;21.898;2023-06-14T08:46:33;23.9;90.0
21121;DHT22;12519;43.318;21.898;2023-06-14T08:51:15;23.9;90.0
21121;DHT22;12519;43.318;21.898;2023-06-14T08:55:55;23.8;89.0
21121;DHT22;12519;43.318;21.898;2023-06-14T09:00:32;23.8;89.0
21121;DHT22;12519;43.318;21.898;2023-06-14T09:05:10;23.6;89.0
21121;DHT22;12519;43.318;21.898;2023-06-14T09:09:47;23.6;89.0
21121;DHT22;12519;43.318;21.898;2023-06-14T09:14:24;23.6;89.0
21121;DHT22;12519;43.318;21.898;2023-06-14T09:19:01;23.6;89.0
21121;DHT22;12519;43.318;21.898;2023-06-14T09:23:41;23.6;89.0
21121;DHT22;12519;43.318;21.898;2023-06-14T09:28:28;23.6;89.0
21121;DHT22;12519;43.318;21.898;2023-06-14T09:33:04;23.6;89.0
21121;DHT22;12519;43.318;21.898;2023-06-14T09:37:42;23.8;88.0
21121;DHT22;12519;43.318;21.898;2023-06-14T09:42:19;23.8;88.0
21121;DHT22;12519;43.318;21.898;2023-06-14T09:46:56;23.9;88.0
21121;DHT22;12519;43.318;21.898;2023-06-14T09:51:42;23.9;88.0
21121;DHT22;12519;43.318;21.898;2023-06-14T09:56:32;24.2;87.0
21121;DHT22;12519;43.318;21.898;2023-06-14T10:01:20;24.2;87.0
21121;DHT22;12519;43.318;21.898;2023-06-14T10:06:08;24.5;86.0
21121;DHT22;12519;43.318;21.898;2023-06-14T10:10:47;24.5;86.0
21121;DHT22;12519;43.318;21.898;2023-06-14T10:15:45;24.6;86.0
21121;DHT22;12519;43.318;21.898;2023-06-14T10:21:07;24.6;86.0
21121;DHT22;12519;43.318;21.898;2023-06-14T10:26:01;24.8;85.0
21121;DHT22;12519;43.318;21.898;2023-06-14T10:30:38;24.8;85.0
21121;DHT22;12519;43.318;21.898;2023-06-14T10:35:16;24.9;85.0
21121;DHT22;12519;43.318;21.898;2023-06-14T10:39:53;24.9;85.0
21121;DHT22;12519;43.318;21.898;2023-06-14T10:44:40;24.9;85.0
21121;DHT22;12519;43.318;21.898;2023-06-14T10:49:42;25.0;84.0
21121;DHT22;12519;43.318;21.898;2023-06-14T10:54:27;25.0;84.0
21121;DHT22;12519;43.318;21.898;2023-06-14T10:59:04;25.2;83.0
21121;DHT22;12519;43.318;21.898;2023-06-14T11:03:52;25.2;83.0
21121;DHT22;12519;43.318;21.898;2023-06-14T11:10:19;25.5;82.0
21121;DHT22;12519;43.318;21.898;2023-06-14T11:15:14;25.6;82.0
21121;DHT22;12519;43.318;21.898;2023-06-14T11:20:08;25.6;82.0
21121;DHT22;12519;43.318;21.898;2023-06-14T11:24:46;25.6;82.0
21121;DHT22;12519;43.318;21.898;2023-06-14T11:29:22;25.7;82.0
21121;DHT22;12519;43.318;21.898;2023-06-14T11:34:00;25.7;82.0
21121;DHT22;12519;43.318;21.898;2023-06-14T11:38:37;25.9;81.0
21121;DHT22;12519;43.318;21.898;2023-06-14T11:43:14;25.9;81.0
21121;DHT22;12519;43.318;21.898;2023-06-14T11:47:50;26.1;80.0
21121;DHT22;12519;43.318;21.898;2023-06-14T11:52:28;26.1;80.0
21121;DHT22;12519;43.318;21.898;2023-06-14T11:57:07;26.0;80.0
21121;DHT22;12519;43.318;21.898;2023-06-14T12:01:44;26.0;80.0
21121;DHT22;12519;43.318;21.898;2023-06-14T12:06:30;25.9;80.0
21121;DHT22;12519;43.318;21.898;2023-06-14T12:11:13;25.9;80.0
21121;DHT22;12519;43.318;21.898;2023-06-14T12:15:55;26.0;79.0
21121;DHT22;12519;43.318;21.898;2023-06-14T12:20:33;26.0;79.0
21121;DHT22;12519;43.318;21.898;2023-06-14T12:25:25;26.2;79.0
21121;DHT22;12519;43.318;21.898;2023-06-14T12:30:10;26.2;79.0
21121;DHT22;12519;43.318;21.898;2023-06-14T12:34:48;26.2;79.0
21121;DHT22;12519;43.318;21.898;2023-06-14T12:39:25;26.1;80.0
21121;DHT22;12519;43.318;21.898;2023-06-14T12:44:02;26.1;80.0
21121;DHT22;12519;43.318;21.898;2023-06-14T12:48:39;26.0;81.0
21121;DHT22;12519;43.318;21.898;2023-06-14T12:53:16;26.0;81.0
21121;DHT22;12519;43.318;21.898;2023-06-14T12:57:53;25.8;82.0
21121;DHT22;12519;43.318;21.898;2023-06-14T13:02:29;25.8;82.0
21121;DHT22;12519;43.318;21.898;2023-06-14T13:07:06;25.7;82.0
21121;DHT22;12519;43.318;21.898;2023-06-14T13:11:42;25.7;82.0
21121;DHT22;12519;43.318;21.898;2023-06-14T13:16:19;25.5;83.0
21121;DHT22;12519;43.318;21.898;2023-06-14T13:20:56;25.5;83.0
21121;DHT22;12519;43.318;21.898;2023-06-14T13:25:33;25.4;83.0
21121;DHT22;12519;43.318;21.898;2023-06-14T13:30:12;25.4;83.0
21121;DHT22;12519;43.318;21.898;2023-06-14T13:34:49;25.4;83.0
21121;DHT22;12519;43.318;21.898;2023-06-14T13:39:26;25.3;84.0
21121;DHT22;12519;43.318;21.898;2023-06-14T13:44:04;25.3;84.0
21121;DHT22;12519;43.318;21.898;2023-06-14T13:48:40;25.2;85.0
21121;DHT22;12519;43.318;21.898;2023-06-14T13:53:16;25.2;85.0
21121;DHT22;12519;43.318;21.898;2023-06-14T13:57:53;25.2;85.0
21121;DHT22;12519;43.318;21.898;2023-06-14T14:02:29;25.2;85.0
21121;DHT22;12519;43.318;21.898;2023-06-14T14:07:07;25.1;86.0
21121;DHT22;12519;43.318;21.898;2023-06-14T14:11:44;25.1;86.0
21121;DHT22;12519;43.318;21.898;2023-06-14T14:16:21;24.8;86.0
21121;DHT22;12519;43.318;21.898;2023-06-14T14:20:58;24.8;86.0
21121;DHT22;12519;43.318;21.898;2023-06-14T14:25:34;24.6;87.0
21121;DHT22;12519;43.318;21.898;2023-06-14T14:30:13;24.6;87.0
21121;DHT22;12519;43.318;21.898;2023-06-14T14:34:50;24.6;87.0
21121;DHT22;12519;43.318;21.898;2023-06-14T14:39:27;24.3;87.0
21121;DHT22;12519;43.318;21.898;2023-06-14T14:44:06;24.3;87.0
21121;DHT22;12519;43.318;21.898;2023-06-14T14:48:43;24.0;88.0
21121;DHT22;12519;43.318;21.898;2023-06-14T14:53:19;24.0;88.0
21121;DHT22;12519;43.318;21.898;2023-06-14T14:57:56;23.8;88.0
21121;DHT22;12519;43.318;21.898;2023-06-14T15:02:33;23.8;88.0
21121;DHT22;12519;43.318;21.898;2023-06-14T15:07:09;23.7;89.0
21121;DHT22;12519;43.318;21.898;2023-06-14T15:11:46;23.7;89.0
21121;DHT22;12519;43.318;21.898;2023-06-14T15:16:23;23.5;90.0
21121;DHT22;12519;43.318;21.898;2023-06-14T15:21:00;23.5;90.0
21121;DHT22;12519;43.318;21.898;2023-06-14T15:25:37;23.4;92.0
21121;DHT22;12519;43.318;21.898;2023-06-14T15:30:13;23.4;92.0
21121;DHT22;12519;43.318;21.898;2023-06-14T15:34:50;23.4;92.0
21121;DHT22;12519;43.318;21.898;2023-06-14T15:39:27;23.4;92.0
21121;DHT22;12519;43.318;21.898;2023-06-14T15:44:05;23.4;92.0
21121;DHT22;12519;43.318;21.898;2023-06-14T15:48:47;23.3;93.0
21121;DHT22;12519;43.318;21.898;2023-06-14T15:53:23;23.3;93.0
21121;DHT22;12519;43.318;21.898;2023-06-14T15:58:00;23.0;94.0
21121;DHT22;12519;43.318;21.898;2023-06-14T16:02:37;23.0;94.0
21121;DHT22;12519;43.318;21.898;2023-06-14T16:07:14;22.8;96.0
21121;DHT22;12519;43.318;21.898;2023-06-14T16:11:51;22.8;96.0
21121;DHT22;12519;43.318;21.898;2023-06-14T16:16:27;22.7;96.0
21121;DHT22;12519;43.318;21.898;2023-06-14T16:21:04;22.7;96.0
21121;DHT22;12519;43.318;21.898;2023-06-14T16:25:41;22.6;97.0
21121;DHT22;12519;43.318;21.898;2023-06-14T16:30:18;22.6;97.0
21121;DHT22;12519;43.318;21.898;2023-06-14T16:34:54;22.6;97.0
21121;DHT22;12519;43.318;21.898;2023-06-14T16:39:30;22.9;96.0
21121;DHT22;12519;43.318;21.898;2023-06-14T16:44:07;22.9;96.0
21121;DHT22;12519;43.318;21.898;2023-06-14T16:48:43;23.2;94.0
21121;DHT22;12519;43.318;21.898;2023-06-14T16:53:20;23.2;94.0
21121;DHT22;12519;43.318;21.898;2023-06-14T16:57:57;23.1;94.0
21121;DHT22;12519;43.318;21.898;2023-06-14T17:02:33;23.1;94.0
21121;DHT22;12519;43.318;21.898;2023-06-14T17:07:10;23.0;95.0
21121;DHT22;12519;43.318;21.898;2023-06-14T17:11:46;23.0;95.0
21121;DHT22;12519;43.318;21.898;2023-06-14T17:16:23;23.0;95.0
21121;DHT22;12519;43.318;21.898;2023-06-14T17:20:59;23.0;95.0
21121;DHT22;12519;43.318;21.898;2023-06-14T17:25:36;22.9;94.0
21121;DHT22;12519;43.318;21.898;2023-06-14T17:30:14;22.9;94.0
21121;DHT22;12519;43.318;21.898;2023-06-14T17:34:51;22.9;94.0
21121;DHT22;12519;43.318;21.898;2023-06-14T17:39:28;22.7;95.0
21121;DHT22;12519;43.318;21.898;2023-06-14T17:44:04;22.7;95.0
21121;DHT22;12519;43.318;21.898;2023-06-14T17:48:41;22.5;95.0
21121;DHT22;12519;43.318;21.898;2023-06-14T17:53:18;22.5;95.0
21121;DHT22;12519;43.318;21.898;2023-06-14T17:57:54;22.4;96.0
21121;DHT22;12519;43.318;21.898;2023-06-14T18:02:31;22.4;96.0
21121;DHT22;12519;43.318;21.898;2023-06-14T18:07:07;22.2;96.0
21121;DHT22;12519;43.318;21.898;2023-06-14T18:11:44;22.2;96.0
21121;DHT22;12519;43.318;21.898;2023-06-14T18:16:20;22.1;97.0
21121;DHT22;12519;43.318;21.898;2023-06-14T18:20:57;22.1;97.0
21121;DHT22;12519;43.318;21.898;2023-06-14T18:25:34;22.1;97.0
21121;DHT22;12519;43.318;21.898;2023-06-14T18:30:13;22.0;98.0
21121;DHT22;12519;43.318;21.898;2023-06-14T18:34:50;22.0;98.0
21121;DHT22;12519;43.318;21.898;2023-06-14T18:39:26;21.8;99.0
21121;DHT22;12519;43.318;21.898;2023-06-14T18:44:03;21.8;99.0
21121;DHT22;12519;43.318;21.898;2023-06-14T18:48:40;21.5;100.0
21121;DHT22;12519;43.318;21.898;2023-06-14T18:53:16;21.5;100.0
21121;DHT22;12519;43.318;21.898;2023-06-14T18:57:53;21.2;100.0
21121;DHT22;12519;43.318;21.898;2023-06-14T19:02:29;21.2;100.0
21121;DHT22;12519;43.318;21.898;2023-06-14T19:07:06;20.8;100.0
21121;DHT22;12519;43.318;21.898;2023-06-14T19:11:42;20.8;100.0
21121;DHT22;12519;43.318;21.898;2023-06-14T19:16:18;20.8;100.0
21121;DHT22;12519;43.318;21.898;2023-06-14T19:20:54;20.8;100.0
21121;DHT22;12519;43.318;21.898;2023-06-14T19:25:31;20.8;100.0
21121;DHT22;12519;43.318;21.898;2023-06-14T19:30:08;20.8;100.0
21121;DHT22;12519;43.318;21.898;2023-06-14T19:34:45;20.8;100.0
21121;DHT22;12519;43.318;21.898;2023-06-14T19:39:22;20.8;100.0
21121;DHT22;12519;43.318;21.898;2023-06-14T19:43:58;20.8;100.0
21121;DHT22;12519;43.318;21.898;2023-06-14T19:48:34;20.9;100.0
21121;DHT22;12519;43.318;21.898;2023-06-14T19:53:11;20.9;100.0
21121;DHT22;12519;43.318;21.898;2023-06-14T19:57:47;20.7;100.0
21121;DHT22;12519;43.318;21.898;2023-06-14T20:02:24;20.7;100.0
21121;DHT22;12519;43.318;21.898;2023-06-14T20:07:00;20.5;100.0
21121;DHT22;12519;43.318;21.898;2023-06-14T20:11:37;20.5;100.0
21121;DHT22;12519;43.318;21.898;2023-06-14T20:16:15;20.6;100.0
21121;DHT22;12519;43.318;21.898;2023-06-14T20:20:52;20.6;100.0
21121;DHT22;12519;43.318;21.898;2023-06-14T20:25:29;20.6;100.0
21121;DHT22;12519;43.318;21.898;2023-06-14T20:30:08;20.8;100.0
21121;DHT22;12519;43.318;21.898;2023-06-14T20:34:46;20.8;100.0
21121;DHT22;12519;43.318;21.898;2023-06-14T20:39:23;20.8;100.0
21121;DHT22;12519;43.318;21.898;2023-06-14T20:44:00;20.8;100.0
21121;DHT22;12519;43.318;21.898;2023-06-14T20:48:37;20.8;100.0
21121;DHT22;12519;43.318;21.898;2023-06-14T20:53:14;20.8;100.0
21121;DHT22;12519;43.318;21.898;2023-06-14T20:57:50;20.8;100.0
21121;DHT22;12519;43.318;21.898;2023-06-14T21:02:27;20.8;100.0
21121;DHT22;12519;43.318;21.898;2023-06-14T21:07:05;20.8;100.0
21121;DHT22;12519;43.318;21.898;2023-06-14T21:11:41;20.8;100.0
21121;DHT22;12519;43.318;21.898;2023-06-14T21:16:18;20.8;100.0
21121;DHT22;12519;43.318;21.898;2023-06-14T21:20:54;20.8;100.0
21121;DHT22;12519;43.318;21.898;2023-06-14T21:25:31;20.8;100.0
21121;DHT22;12519;43.318;21.898;2023-06-14T21:30:09;20.9;100.0
21121;DHT22;12519;43.318;21.898;2023-06-14T21:34:51;20.9;100.0
21121;DHT22;12519;43.318;21.898;2023-06-14T21:39:27;20.9;100.0
21121;DHT22;12519;43.318;21.898;2023-06-14T21:44:05;20.9;100.0
21121;DHT22;12519;43.318;21.898;2023-06-14T21:48:41;20.9;100.0
21121;DHT22;12519;43.318;21.898;2023-06-14T21:53:17;20.9;100.0
21121;DHT22;12519;43.318;21.898;2023-06-14T21:57:54;20.8;100.0
21121;DHT22;12519;43.318;21.898;2023-06-14T22:02:30;20.8;100.0
21121;DHT22;12519;43.318;21.898;2023-06-14T22:07:07;20.8;100.0
21121;DHT22;12519;43.318;21.898;2023-06-14T22:11:44;20.8;100.0
21121;DHT22;12519;43.318;21.898;2023-06-14T22:16:21;20.6;100.0
21121;DHT22;12519;43.318;21.898;2023-06-14T22:20:58;20.6;100.0
21121;DHT22;12519;43.318;21.898;2023-06-14T22:25:34;20.6;100.0
21121;DHT22;12519;43.318;21.898;2023-06-14T22:30:14;20.5;100.0
21121;DHT22;12519;43.318;21.898;2023-06-14T22:34:52;20.5;100.0
21121;DHT22;12519;43.318;21.898;2023-06-14T22:39:29;20.1;100.0
21121;DHT22;12519;43.318;21.898;2023-06-14T22:44:06;20.1;100.0
21121;DHT22;12519;43.318;21.898;2023-06-14T22:48:42;19.7;100.0
21121;DHT22;12519;43.318;21.898;2023-06-14T22:53:19;19.7;100.0
21121;DHT22;12519;43.318;21.898;2023-06-14T22:57:56;19.8;100.0
21121;DHT22;12519;43.318;21.898;2023-06-14T23:02:33;19.8;100.0
21121;DHT22;12519;43.318;21.898;2023-06-14T23:07:10;19.9;100.0
21121;DHT22;12519;43.318;21.898;2023-06-14T23:11:46;19.9;100.0
21121;DHT22;12519;43.318;21.898;2023-06-14T23:16:23;20.0;100.0
21121;DHT22;12519;43.318;21.898;2023-06-14T23:21:00;20.0;100.0
21121;DHT22;12519;43.318;21.898;2023-06-14T23:25:37;20.0;100.0
21121;DHT22;12519;43.318;21.898;2023-06-14T23:30:14;20.2;100.0
21121;DHT22;12519;43.318;21.898;2023-06-14T23:34:50;20.2;100.0
21121;DHT22;12519;43.318;21.898;2023-06-14T23:39:27;20.2;100.0
21121;DHT22;12519;43.318;21.898;2023-06-14T23:44:04;20.2;100.0
21121;DHT22;12519;43.318;21.898;2023-06-14T23:48:40;20.3;100.0
21121;DHT22;12519;43.318;21.898;2023-06-14T23:53:17;20.3;100.0
21121;DHT22;12519;43.318;21.898;2023-06-14T23:57:54;20.3;100.0
